sensor_id;sensor_type;location;lat;lon;timestamp;pressure;altitude;pressure_sealevel;temperature;humidity
12349;BME280;5974;42.710;27.258;2023-03-23T00:01:00;100363.78;;;8.41;100.00
12349;BME280;5974;42.710;27.258;2023-03-23T00:03:27;100362.13;;;8.37;100.00
12349;BME280;5974;42.710;27.258;2023-03-23T00:05:57;100357.00;;;8.34;100.00
12349;BME280;5974;42.710;27.258;2023-03-23T00:08:26;100353.25;;;8.44;100.00
12349;BME280;5974;42.710;27.258;2023-03-23T00:10:53;100356.91;;;8.38;100.00
12349;BME280;5974;42.710;27.258;2023-03-23T00:13:22;100359.41;;;8.72;100.00
12349;BME280;5974;42.710;27.258;2023-03-23T00:15:49;100362.19;;;8.35;100.00
12349;BME280;5974;42.710;27.258;2023-03-23T00:18:17;100355.25;;;8.36;100.00
12349;BME280;5974;42.710;27.258;2023-03-23T00:20:48;100355.09;;;8.40;100.00
12349;BME280;5974;42.710;27.258;2023-03-23T00:23:16;100355.00;;;9.03;100.00
12349;BME280;5974;42.710;27.258;2023-03-23T00:25:47;100357.34;;;9.11;100.00
12349;BME280;5974;42.710;27.258;2023-03-23T00:28:15;100358.47;;;9.32;100.00
12349;BME280;5974;42.710;27.258;2023-03-23T00:30:42;100356.75;;;9.31;100.00
12349;BME280;5974;42.710;27.258;2023-03-23T00:33:10;100354.97;;;9.59;100.00
12349;BME280;5974;42.710;27.258;2023-03-23T00:35:40;100330.66;;;9.03;100.00
12349;BME280;5974;42.710;27.258;2023-03-23T00:38:09;100337.78;;;8.98;100.00
12349;BME280;5974;42.710;27.258;2023-03-23T00:40:36;100334.44;;;9.20;100.00
12349;BME280;5974;42.710;27.258;2023-03-23T00:43:04;100335.31;;;9.21;100.00
12349;BME280;5974;42.710;27.258;2023-03-23T00:45:31;100332.47;;;9.01;100.00
12349;BME280;5974;42.710;27.258;2023-03-23T00:48:00;100328.31;;;8.66;100.00
12349;BME280;5974;42.710;27.258;2023-03-23T00:50:28;100331.34;;;9.09;100.00
12349;BME280;5974;42.710;27.258;2023-03-23T00:52:55;100325.25;;;9.09;100.00
12349;BME280;5974;42.710;27.258;2023-03-23T00:55:22;100324.81;;;9.50;100.00
12349;BME280;5974;42.710;27.258;2023-03-23T00:57:49;100322.84;;;9.29;100.00
12349;BME280;5974;42.710;27.258;2023-03-23T01:00:18;100310.22;;;8.89;100.00
12349;BME280;5974;42.710;27.258;2023-03-23T01:02:46;100313.97;;;8.51;100.00
12349;BME280;5974;42.710;27.258;2023-03-23T01:05:12;100321.66;;;8.56;100.00
12349;BME280;5974;42.710;27.258;2023-03-23T01:07:41;100317.00;;;8.67;100.00
12349;BME280;5974;42.710;27.258;2023-03-23T01:10:11;100314.38;;;8.67;100.00
12349;BME280;5974;42.710;27.258;2023-03-23T01:12:43;100315.25;;;8.95;100.00
12349;BME280;5974;42.710;27.258;2023-03-23T01:15:13;100319.88;;;8.58;100.00
12349;BME280;5974;42.710;27.258;2023-03-23T01:17:43;100312.56;;;8.69;100.00
12349;BME280;5974;42.710;27.258;2023-03-23T01:20:11;100312.50;;;9.00;100.00
12349;BME280;5974;42.710;27.258;2023-03-23T01:22:39;100309.88;;;9.27;100.00
12349;BME280;5974;42.710;27.258;2023-03-23T01:25:07;100314.81;;;9.37;100.00
12349;BME280;5974;42.710;27.258;2023-03-23T01:27:34;100313.19;;;9.33;100.00
12349;BME280;5974;42.710;27.258;2023-03-23T01:30:01;100303.97;;;8.95;100.00
12349;BME280;5974;42.710;27.258;2023-03-23T01:32:28;100305.38;;;8.77;100.00
12349;BME280;5974;42.710;27.258;2023-03-23T01:34:57;100311.06;;;9.17;100.00
12349;BME280;5974;42.710;27.258;2023-03-23T01:37:24;100308.16;;;8.71;100.00
12349;BME280;5974;42.710;27.258;2023-03-23T01:39:52;100312.81;;;8.31;100.00
12349;BME280;5974;42.710;27.258;2023-03-23T01:42:22;100311.78;;;8.05;100.00
12349;BME280;5974;42.710;27.258;2023-03-23T01:45:23;100310.34;;;7.94;100.00
12349;BME280;5974;42.710;27.258;2023-03-23T01:47:56;100285.59;;;7.79;100.00
12349;BME280;5974;42.710;27.258;2023-03-23T01:50:26;100326.72;;;7.97;100.00
12349;BME280;5974;42.710;27.258;2023-03-23T01:52:56;100322.28;;;8.02;100.00
12349;BME280;5974;42.710;27.258;2023-03-23T01:55:26;100324.22;;;7.94;100.00
12349;BME280;5974;42.710;27.258;2023-03-23T01:57:54;100329.75;;;8.14;100.00
12349;BME280;5974;42.710;27.258;2023-03-23T02:00:23;100325.53;;;8.10;100.00
12349;BME280;5974;42.710;27.258;2023-03-23T02:02:51;100331.91;;;7.99;100.00
12349;BME280;5974;42.710;27.258;2023-03-23T02:05:26;100332.28;;;8.17;100.00
12349;BME280;5974;42.710;27.258;2023-03-23T02:07:57;100337.44;;;8.19;100.00
12349;BME280;5974;42.710;27.258;2023-03-23T02:10:28;100328.16;;;8.41;100.00
12349;BME280;5974;42.710;27.258;2023-03-23T02:12:56;100327.06;;;8.17;100.00
12349;BME280;5974;42.710;27.258;2023-03-23T02:15:25;100299.25;;;7.87;100.00
12349;BME280;5974;42.710;27.258;2023-03-23T02:18:01;100333.53;;;8.66;100.00
12349;BME280;5974;42.710;27.258;2023-03-23T02:20:49;100338.06;;;8.29;100.00
12349;BME280;5974;42.710;27.258;2023-03-23T02:23:50;100340.16;;;8.47;100.00
12349;BME280;5974;42.710;27.258;2023-03-23T02:26:34;100338.06;;;8.29;100.00
12349;BME280;5974;42.710;27.258;2023-03-23T02:32:20;100338.66;;;8.40;100.00
12349;BME280;5974;42.710;27.258;2023-03-23T02:34:53;100344.28;;;8.23;100.00
12349;BME280;5974;42.710;27.258;2023-03-23T02:37:28;100345.34;;;8.48;100.00
12349;BME280;5974;42.710;27.258;2023-03-23T02:40:02;100342.81;;;8.75;100.00
12349;BME280;5974;42.710;27.258;2023-03-23T02:42:34;100348.63;;;8.84;100.00
12349;BME280;5974;42.710;27.258;2023-03-23T02:45:04;100349.06;;;8.69;100.00
12349;BME280;5974;42.710;27.258;2023-03-23T02:47:32;100350.78;;;8.70;100.00
12349;BME280;5974;42.710;27.258;2023-03-23T02:50:03;100352.53;;;8.69;100.00
12349;BME280;5974;42.710;27.258;2023-03-23T02:52:33;100350.78;;;8.70;100.00
12349;BME280;5974;42.710;27.258;2023-03-23T02:55:01;100335.88;;;8.46;100.00
12349;BME280;5974;42.710;27.258;2023-03-23T02:57:30;100338.69;;;8.37;100.00
12349;BME280;5974;42.710;27.258;2023-03-23T02:59:57;100354.09;;;9.04;100.00
12349;BME280;5974;42.710;27.258;2023-03-23T03:02:25;100358.78;;;8.93;100.00
12349;BME280;5974;42.710;27.258;2023-03-23T03:04:58;100350.00;;;8.96;100.00
12349;BME280;5974;42.710;27.258;2023-03-23T03:07:49;100351.94;;;8.89;100.00
12349;BME280;5974;42.710;27.258;2023-03-23T03:10:25;100348.09;;;8.73;100.00
12349;BME280;5974;42.710;27.258;2023-03-23T03:12:57;100352.97;;;8.54;100.00
12349;BME280;5974;42.710;27.258;2023-03-23T03:15:28;100354.00;;;9.07;100.00
12349;BME280;5974;42.710;27.258;2023-03-23T03:18:02;100355.84;;;8.75;100.00
12349;BME280;5974;42.710;27.258;2023-03-23T03:20:32;100357.94;;;8.62;100.00
12349;BME280;5974;42.710;27.258;2023-03-23T03:23:05;100364.72;;;8.69;100.00
12349;BME280;5974;42.710;27.258;2023-03-23T03:25:36;100368.88;;;9.04;100.00
12349;BME280;5974;42.710;27.258;2023-03-23T03:28:04;100359.16;;;8.50;100.00
12349;BME280;5974;42.710;27.258;2023-03-23T03:30:33;100351.00;;;8.32;100.00
12349;BME280;5974;42.710;27.258;2023-03-23T03:33:03;100364.03;;;8.32;100.00
12349;BME280;5974;42.710;27.258;2023-03-23T03:35:30;100367.22;;;8.43;100.00
12349;BME280;5974;42.710;27.258;2023-03-23T03:38:06;100364.81;;;8.35;100.00
12349;BME280;5974;42.710;27.258;2023-03-23T03:40:34;100359.34;;;8.44;100.00
12349;BME280;5974;42.710;27.258;2023-03-23T03:43:01;100367.44;;;8.64;100.00
12349;BME280;5974;42.710;27.258;2023-03-23T03:45:28;100365.22;;;8.51;100.00
12349;BME280;5974;42.710;27.258;2023-03-23T03:47:56;100374.13;;;9.02;100.00
12349;BME280;5974;42.710;27.258;2023-03-23T03:50:22;100375.56;;;9.40;100.00
12349;BME280;5974;42.710;27.258;2023-03-23T03:52:50;100360.22;;;9.03;100.00
12349;BME280;5974;42.710;27.258;2023-03-23T03:55:18;100361.69;;;9.12;100.00
12349;BME280;5974;42.710;27.258;2023-03-23T03:57:45;100325.53;;;9.00;100.00
12349;BME280;5974;42.710;27.258;2023-03-23T04:00:13;100361.16;;;9.29;100.00
12349;BME280;5974;42.710;27.258;2023-03-23T04:02:44;100356.84;;;9.27;100.00
12349;BME280;5974;42.710;27.258;2023-03-23T04:05:13;100358.25;;;8.82;100.00
12349;BME280;5974;42.710;27.258;2023-03-23T04:07:40;100367.19;;;9.01;100.00
12349;BME280;5974;42.710;27.258;2023-03-23T04:10:08;100361.00;;;9.05;100.00
12349;BME280;5974;42.710;27.258;2023-03-23T04:12:37;100361.91;;;9.32;100.00
12349;BME280;5974;42.710;27.258;2023-03-23T04:15:05;100357.31;;;9.12;100.00
12349;BME280;5974;42.710;27.258;2023-03-23T04:17:33;100354.22;;;9.00;100.00
12349;BME280;5974;42.710;27.258;2023-03-23T04:20:00;100358.84;;;8.90;100.00
12349;BME280;5974;42.710;27.258;2023-03-23T04:22:31;100358.47;;;8.75;100.00
12349;BME280;5974;42.710;27.258;2023-03-23T04:25:00;100368.91;;;9.32;100.00
12349;BME280;5974;42.710;27.258;2023-03-23T04:27:31;100362.25;;;9.48;100.00
12349;BME280;5974;42.710;27.258;2023-03-23T04:29:59;100367.50;;;9.20;100.00
12349;BME280;5974;42.710;27.258;2023-03-23T04:32:26;100366.69;;;9.46;100.00
12349;BME280;5974;42.710;27.258;2023-03-23T04:34:54;100373.59;;;9.74;100.00
12349;BME280;5974;42.710;27.258;2023-03-23T04:37:21;100369.31;;;9.97;100.00
12349;BME280;5974;42.710;27.258;2023-03-23T04:39:52;100376.09;;;9.23;100.00
12349;BME280;5974;42.710;27.258;2023-03-23T04:42:26;100368.72;;;9.64;100.00
12349;BME280;5974;42.710;27.258;2023-03-23T04:44:53;100374.72;;;9.66;100.00
12349;BME280;5974;42.710;27.258;2023-03-23T04:47:22;100377.78;;;10.05;100.00
12349;BME280;5974;42.710;27.258;2023-03-23T04:49:49;100375.47;;;9.96;100.00
12349;BME280;5974;42.710;27.258;2023-03-23T04:52:16;100366.94;;;9.38;100.00
12349;BME280;5974;42.710;27.258;2023-03-23T04:54:43;100380.22;;;9.31;100.00
12349;BME280;5974;42.710;27.258;2023-03-23T04:57:10;100385.44;;;9.31;100.00
12349;BME280;5974;42.710;27.258;2023-03-23T04:59:37;100387.63;;;9.44;100.00
12349;BME280;5974;42.710;27.258;2023-03-23T05:02:04;100385.72;;;9.21;100.00
12349;BME280;5974;42.710;27.258;2023-03-23T05:04:33;100391.63;;;9.28;100.00
12349;BME280;5974;42.710;27.258;2023-03-23T05:06:59;100379.25;;;9.05;100.00
12349;BME280;5974;42.710;27.258;2023-03-23T05:09:26;100404.44;;;9.88;100.00
12349;BME280;5974;42.710;27.258;2023-03-23T05:11:53;100400.09;;;10.15;100.00
12349;BME280;5974;42.710;27.258;2023-03-23T05:14:20;100395.28;;;9.76;100.00
12349;BME280;5974;42.710;27.258;2023-03-23T05:16:47;100398.28;;;9.09;100.00
12349;BME280;5974;42.710;27.258;2023-03-23T05:19:14;100401.47;;;8.89;100.00
12349;BME280;5974;42.710;27.258;2023-03-23T05:21:42;100370.34;;;8.54;100.00
12349;BME280;5974;42.710;27.258;2023-03-23T05:24:10;100411.63;;;8.69;100.00
12349;BME280;5974;42.710;27.258;2023-03-23T05:26:37;100418.91;;;8.58;100.00
12349;BME280;5974;42.710;27.258;2023-03-23T05:29:03;100425.78;;;8.60;100.00
12349;BME280;5974;42.710;27.258;2023-03-23T05:31:30;100428.19;;;8.97;100.00
12349;BME280;5974;42.710;27.258;2023-03-23T05:33:57;100435.09;;;8.98;100.00
12349;BME280;5974;42.710;27.258;2023-03-23T05:36:24;100434.13;;;9.59;100.00
12349;BME280;5974;42.710;27.258;2023-03-23T05:38:52;100437.34;;;9.67;100.00
12349;BME280;5974;42.710;27.258;2023-03-23T05:41:19;100434.63;;;9.43;100.00
12349;BME280;5974;42.710;27.258;2023-03-23T05:43:46;100431.84;;;9.49;100.00
12349;BME280;5974;42.710;27.258;2023-03-23T05:46:13;100442.38;;;9.46;100.00
12349;BME280;5974;42.710;27.258;2023-03-23T05:48:40;100438.53;;;9.57;100.00
12349;BME280;5974;42.710;27.258;2023-03-23T05:51:07;100418.06;;;9.16;100.00
12349;BME280;5974;42.710;27.258;2023-03-23T05:53:35;100442.53;;;9.12;100.00
12349;BME280;5974;42.710;27.258;2023-03-23T05:56:04;100450.00;;;8.95;100.00
12349;BME280;5974;42.710;27.258;2023-03-23T05:58:32;100447.47;;;8.92;100.00
12349;BME280;5974;42.710;27.258;2023-03-23T06:00:59;100447.06;;;9.05;100.00
12349;BME280;5974;42.710;27.258;2023-03-23T06:03:25;100440.22;;;9.01;100.00
12349;BME280;5974;42.710;27.258;2023-03-23T06:05:52;100448.38;;;9.75;100.00
12349;BME280;5974;42.710;27.258;2023-03-23T06:08:19;100445.59;;;9.54;100.00
12349;BME280;5974;42.710;27.258;2023-03-23T06:10:46;100441.94;;;9.32;100.00
12349;BME280;5974;42.710;27.258;2023-03-23T06:13:15;100439.94;;;9.67;100.00
12349;BME280;5974;42.710;27.258;2023-03-23T06:15:41;100446.44;;;9.54;100.00
12349;BME280;5974;42.710;27.258;2023-03-23T06:18:08;100444.25;;;10.47;100.00
12349;BME280;5974;42.710;27.258;2023-03-23T06:20:35;100432.19;;;10.68;100.00
12349;BME280;5974;42.710;27.258;2023-03-23T06:23:02;100416.50;;;9.92;100.00
12349;BME280;5974;42.710;27.258;2023-03-23T06:25:29;100406.03;;;10.45;100.00
12349;BME280;5974;42.710;27.258;2023-03-23T06:27:57;100380.41;;;10.54;100.00
12349;BME280;5974;42.710;27.258;2023-03-23T06:30:26;100390.16;;;10.49;100.00
12349;BME280;5974;42.710;27.258;2023-03-23T06:32:54;100399.41;;;9.84;100.00
12349;BME280;5974;42.710;27.258;2023-03-23T06:35:21;100403.25;;;9.98;100.00
12349;BME280;5974;42.710;27.258;2023-03-23T06:37:48;100401.91;;;10.38;100.00
12349;BME280;5974;42.710;27.258;2023-03-23T06:40:15;100405.84;;;10.49;100.00
12349;BME280;5974;42.710;27.258;2023-03-23T06:42:44;100408.50;;;10.96;100.00
12349;BME280;5974;42.710;27.258;2023-03-23T06:45:11;100403.94;;;10.54;100.00
12349;BME280;5974;42.710;27.258;2023-03-23T06:47:39;100411.50;;;10.62;100.00
12349;BME280;5974;42.710;27.258;2023-03-23T06:50:07;100401.03;;;11.08;100.00
12349;BME280;5974;42.710;27.258;2023-03-23T06:52:34;100395.59;;;10.91;100.00
12349;BME280;5974;42.710;27.258;2023-03-23T06:55:01;100388.47;;;11.39;100.00
12349;BME280;5974;42.710;27.258;2023-03-23T06:57:28;100386.63;;;11.41;100.00
12349;BME280;5974;42.710;27.258;2023-03-23T06:59:55;100386.75;;;11.38;100.00
12349;BME280;5974;42.710;27.258;2023-03-23T07:02:22;100380.59;;;11.18;100.00
12349;BME280;5974;42.710;27.258;2023-03-23T07:04:51;100392.94;;;11.14;100.00
12349;BME280;5974;42.710;27.258;2023-03-23T07:07:19;100396.31;;;11.18;100.00
12349;BME280;5974;42.710;27.258;2023-03-23T07:09:46;100389.47;;;11.14;100.00
12349;BME280;5974;42.710;27.258;2023-03-23T07:12:13;100397.16;;;10.95;100.00
12349;BME280;5974;42.710;27.258;2023-03-23T07:14:41;100396.56;;;10.88;100.00
12349;BME280;5974;42.710;27.258;2023-03-23T07:17:08;100362.44;;;10.45;100.00
12349;BME280;5974;42.710;27.258;2023-03-23T07:19:34;100403.75;;;11.05;100.00
12349;BME280;5974;42.710;27.258;2023-03-23T07:22:04;100403.28;;;11.17;100.00
12349;BME280;5974;42.710;27.258;2023-03-23T07:24:30;100401.22;;;10.80;100.00
12349;BME280;5974;42.710;27.258;2023-03-23T07:26:58;100397.59;;;10.84;100.00
12349;BME280;5974;42.710;27.258;2023-03-23T07:29:25;100394.84;;;10.87;100.00
12349;BME280;5974;42.710;27.258;2023-03-23T07:31:52;100410.63;;;10.61;100.00
12349;BME280;5974;42.710;27.258;2023-03-23T07:34:20;100403.16;;;11.43;100.00
12349;BME280;5974;42.710;27.258;2023-03-23T07:36:46;100395.78;;;11.97;100.00
12349;BME280;5974;42.710;27.258;2023-03-23T07:39:15;100369.75;;;11.92;100.00
12349;BME280;5974;42.710;27.258;2023-03-23T07:41:41;100380.31;;;12.11;100.00
12349;BME280;5974;42.710;27.258;2023-03-23T07:44:08;100382.06;;;12.10;100.00
12349;BME280;5974;42.710;27.258;2023-03-23T07:46:35;100384.72;;;11.47;100.00
12349;BME280;5974;42.710;27.258;2023-03-23T07:49:02;100382.81;;;11.50;100.00
12349;BME280;5974;42.710;27.258;2023-03-23T07:51:30;100393.69;;;11.61;100.00
12349;BME280;5974;42.710;27.258;2023-03-23T07:53:57;100371.97;;;11.37;100.00
12349;BME280;5974;42.710;27.258;2023-03-23T07:56:26;100387.31;;;11.25;100.00
12349;BME280;5974;42.710;27.258;2023-03-23T07:58:53;100402.75;;;11.09;100.00
12349;BME280;5974;42.710;27.258;2023-03-23T08:01:20;100409.63;;;11.12;100.00
12349;BME280;5974;42.710;27.258;2023-03-23T08:03:48;100409.00;;;11.05;100.00
12349;BME280;5974;42.710;27.258;2023-03-23T08:06:15;100408.72;;;11.13;100.00
12349;BME280;5974;42.710;27.258;2023-03-23T08:08:42;100405.44;;;11.29;100.00
12349;BME280;5974;42.710;27.258;2023-03-23T08:11:09;100412.22;;;11.35;100.00
12349;BME280;5974;42.710;27.258;2023-03-23T08:13:37;100415.88;;;11.96;100.00
12349;BME280;5974;42.710;27.258;2023-03-23T08:16:05;100402.34;;;11.41;100.00
12349;BME280;5974;42.710;27.258;2023-03-23T08:18:32;100411.41;;;11.98;100.00
12349;BME280;5974;42.710;27.258;2023-03-23T08:21:00;100414.31;;;11.70;100.00
12349;BME280;5974;42.710;27.258;2023-03-23T08:23:27;100418.66;;;11.71;100.00
12349;BME280;5974;42.710;27.258;2023-03-23T08:25:54;100413.88;;;11.59;100.00
12349;BME280;5974;42.710;27.258;2023-03-23T08:28:21;100405.09;;;11.38;100.00
12349;BME280;5974;42.710;27.258;2023-03-23T08:30:50;100409.72;;;11.32;100.00
12349;BME280;5974;42.710;27.258;2023-03-23T08:33:17;100418.00;;;11.43;100.00
12349;BME280;5974;42.710;27.258;2023-03-23T08:35:54;100408.28;;;11.23;100.00
12349;BME280;5974;42.710;27.258;2023-03-23T08:38:22;100410.56;;;11.32;100.00
12349;BME280;5974;42.710;27.258;2023-03-23T08:40:49;100415.00;;;11.30;100.00
12349;BME280;5974;42.710;27.258;2023-03-23T08:43:16;100426.69;;;11.22;100.00
12349;BME280;5974;42.710;27.258;2023-03-23T08:45:43;100427.53;;;11.22;100.00
12349;BME280;5974;42.710;27.258;2023-03-23T08:48:11;100430.31;;;11.41;100.00
12349;BME280;5974;42.710;27.258;2023-03-23T08:50:38;100438.53;;;11.75;100.00
12349;BME280;5974;42.710;27.258;2023-03-23T08:53:05;100428.91;;;11.98;100.00
12349;BME280;5974;42.710;27.258;2023-03-23T08:55:32;100428.00;;;12.19;100.00
12349;BME280;5974;42.710;27.258;2023-03-23T08:57:59;100421.75;;;11.81;100.00
12349;BME280;5974;42.710;27.258;2023-03-23T09:00:26;100415.81;;;11.54;100.00
12349;BME280;5974;42.710;27.258;2023-03-23T09:02:54;100429.38;;;11.64;100.00
12349;BME280;5974;42.710;27.258;2023-03-23T09:05:25;100421.84;;;11.56;100.00
12349;BME280;5974;42.710;27.258;2023-03-23T09:07:54;100410.13;;;11.21;100.00
12349;BME280;5974;42.710;27.258;2023-03-23T09:10:22;100424.22;;;11.17;100.00
12349;BME280;5974;42.710;27.258;2023-03-23T09:12:52;100429.53;;;11.16;100.00
12349;BME280;5974;42.710;27.258;2023-03-23T09:15:19;100432.66;;;11.02;100.00
12349;BME280;5974;42.710;27.258;2023-03-23T09:17:47;100431.97;;;11.20;100.00
12349;BME280;5974;42.710;27.258;2023-03-23T09:20:17;100431.44;;;11.34;100.00
12349;BME280;5974;42.710;27.258;2023-03-23T09:22:48;100428.44;;;11.21;100.00
12349;BME280;5974;42.710;27.258;2023-03-23T09:25:18;100428.91;;;11.54;100.00
12349;BME280;5974;42.710;27.258;2023-03-23T09:27:48;100417.31;;;11.60;100.00
12349;BME280;5974;42.710;27.258;2023-03-23T09:30:19;100420.91;;;12.01;100.00
12349;BME280;5974;42.710;27.258;2023-03-23T09:32:46;100413.28;;;12.16;100.00
12349;BME280;5974;42.710;27.258;2023-03-23T09:35:15;100413.91;;;12.21;100.00
12349;BME280;5974;42.710;27.258;2023-03-23T09:37:43;100413.13;;;12.19;100.00
12349;BME280;5974;42.710;27.258;2023-03-23T09:40:14;100404.84;;;12.30;100.00
12349;BME280;5974;42.710;27.258;2023-03-23T09:43:02;100396.34;;;12.43;100.00
12349;BME280;5974;42.710;27.258;2023-03-23T09:45:39;100400.81;;;12.41;100.00
12349;BME280;5974;42.710;27.258;2023-03-23T09:48:26;100401.72;;;12.00;100.00
12349;BME280;5974;42.710;27.258;2023-03-23T09:51:01;100403.56;;;11.98;100.00
12349;BME280;5974;42.710;27.258;2023-03-23T09:53:34;100402.53;;;12.42;100.00
12349;BME280;5974;42.710;27.258;2023-03-23T09:56:10;100399.91;;;12.42;100.00
12349;BME280;5974;42.710;27.258;2023-03-23T09:58:45;100400.09;;;12.77;100.00
12349;BME280;5974;42.710;27.258;2023-03-23T10:01:17;100393.63;;;13.04;100.00
12349;BME280;5974;42.710;27.258;2023-03-23T10:03:47;100392.00;;;12.63;100.00
12349;BME280;5974;42.710;27.258;2023-03-23T10:06:16;100392.31;;;12.55;100.00
12349;BME280;5974;42.710;27.258;2023-03-23T10:08:46;100392.41;;;12.54;100.00
12349;BME280;5974;42.710;27.258;2023-03-23T10:11:23;100396.56;;;12.39;100.00
12349;BME280;5974;42.710;27.258;2023-03-23T10:16:52;100404.06;;;12.67;100.00
12349;BME280;5974;42.710;27.258;2023-03-23T10:19:29;100399.25;;;12.37;100.00
12349;BME280;5974;42.710;27.258;2023-03-23T10:22:02;100398.28;;;12.79;100.00
12349;BME280;5974;42.710;27.258;2023-03-23T10:24:34;100406.59;;;12.29;100.00
12349;BME280;5974;42.710;27.258;2023-03-23T10:27:11;100419.25;;;12.20;100.00
12349;BME280;5974;42.710;27.258;2023-03-23T10:29:43;100411.75;;;12.31;100.00
12349;BME280;5974;42.710;27.258;2023-03-23T10:32:14;100410.38;;;12.63;100.00
12349;BME280;5974;42.710;27.258;2023-03-23T10:34:45;100400.81;;;12.01;100.00
12349;BME280;5974;42.710;27.258;2023-03-23T10:37:18;100414.28;;;11.92;100.00
12349;BME280;5974;42.710;27.258;2023-03-23T10:39:49;100414.78;;;12.02;100.00
12349;BME280;5974;42.710;27.258;2023-03-23T10:42:24;100415.09;;;12.34;100.00
12349;BME280;5974;42.710;27.258;2023-03-23T10:44:51;100396.47;;;12.40;100.00
12349;BME280;5974;42.710;27.258;2023-03-23T10:47:18;100401.44;;;12.67;100.00
12349;BME280;5974;42.710;27.258;2023-03-23T10:49:49;100398.28;;;12.79;100.00
12349;BME280;5974;42.710;27.258;2023-03-23T10:52:25;100387.97;;;13.13;100.00
12349;BME280;5974;42.710;27.258;2023-03-23T10:54:57;100387.84;;;13.16;100.00
12349;BME280;5974;42.710;27.258;2023-03-23T10:57:28;100381.22;;;13.62;100.00
12349;BME280;5974;42.710;27.258;2023-03-23T11:00:00;100377.06;;;13.02;100.00
12349;BME280;5974;42.710;27.258;2023-03-23T11:02:35;100379.50;;;13.07;100.00
12349;BME280;5974;42.710;27.258;2023-03-23T11:05:06;100375.81;;;13.29;100.00
12349;BME280;5974;42.710;27.258;2023-03-23T11:07:39;100378.78;;;13.03;100.00
12349;BME280;5974;42.710;27.258;2023-03-23T11:10:16;100379.69;;;12.83;100.00
12349;BME280;5974;42.710;27.258;2023-03-23T11:12:45;100375.97;;;12.50;100.00
12349;BME280;5974;42.710;27.258;2023-03-23T11:15:28;100381.97;;;12.33;100.00
12349;BME280;5974;42.710;27.258;2023-03-23T11:18:00;100385.53;;;12.51;100.00
12349;BME280;5974;42.710;27.258;2023-03-23T11:20:29;100334.09;;;12.28;100.00
12349;BME280;5974;42.710;27.258;2023-03-23T11:23:01;100367.00;;;12.93;100.00
12349;BME280;5974;42.710;27.258;2023-03-23T11:25:34;100364.41;;;13.12;100.00
12349;BME280;5974;42.710;27.258;2023-03-23T11:28:15;100362.72;;;13.46;100.00
12349;BME280;5974;42.710;27.258;2023-03-23T11:30:42;100355.41;;;14.22;100.00
12349;BME280;5974;42.710;27.258;2023-03-23T11:33:10;100354.66;;;13.85;100.00
12349;BME280;5974;42.710;27.258;2023-03-23T11:35:43;100349.41;;;14.02;100.00
12349;BME280;5974;42.710;27.258;2023-03-23T11:38:16;100349.59;;;14.15;100.00
12349;BME280;5974;42.710;27.258;2023-03-23T11:40:47;100338.81;;;13.87;100.00
12349;BME280;5974;42.710;27.258;2023-03-23T11:43:19;100342.28;;;14.04;100.00
12349;BME280;5974;42.710;27.258;2023-03-23T11:45:50;100335.41;;;13.68;100.00
12349;BME280;5974;42.710;27.258;2023-03-23T11:48:27;100341.44;;;13.70;100.00
12349;BME280;5974;42.710;27.258;2023-03-23T11:50:59;100339.75;;;12.95;100.00
12349;BME280;5974;42.710;27.258;2023-03-23T11:53:33;100337.56;;;13.60;100.00
12349;BME280;5974;42.710;27.258;2023-03-23T11:56:13;100344.19;;;12.76;100.00
12349;BME280;5974;42.710;27.258;2023-03-23T11:58:43;100341.81;;;13.07;100.00
12349;BME280;5974;42.710;27.258;2023-03-23T12:01:19;100334.78;;;12.89;100.00
12349;BME280;5974;42.710;27.258;2023-03-23T12:04:18;100346.41;;;12.65;100.00
12349;BME280;5974;42.710;27.258;2023-03-23T12:06:53;100328.75;;;13.43;100.00
12349;BME280;5974;42.710;27.258;2023-03-23T12:09:33;100338.59;;;14.08;100.00
12349;BME280;5974;42.710;27.258;2023-03-23T12:12:12;100336.06;;;13.37;100.00
12349;BME280;5974;42.710;27.258;2023-03-23T12:14:49;100316.22;;;12.57;100.00
12349;BME280;5974;42.710;27.258;2023-03-23T12:17:26;100345.44;;;13.24;100.00
12349;BME280;5974;42.710;27.258;2023-03-23T12:20:08;100346.09;;;13.29;100.00
12349;BME280;5974;42.710;27.258;2023-03-23T12:22:48;100348.66;;;13.12;100.00
12349;BME280;5974;42.710;27.258;2023-03-23T12:25:42;100343.66;;;12.87;100.00
12349;BME280;5974;42.710;27.258;2023-03-23T12:28:15;100357.16;;;12.00;100.00
12349;BME280;5974;42.710;27.258;2023-03-23T12:30:49;100358.75;;;11.84;100.00
12349;BME280;5974;42.710;27.258;2023-03-23T12:33:25;100355.56;;;11.54;100.00
12349;BME280;5974;42.710;27.258;2023-03-23T12:36:08;100360.56;;;11.60;100.00
12349;BME280;5974;42.710;27.258;2023-03-23T12:38:54;100361.28;;;11.85;100.00
12349;BME280;5974;42.710;27.258;2023-03-23T12:41:29;100356.69;;;11.70;100.00
12349;BME280;5974;42.710;27.258;2023-03-23T12:44:00;100367.72;;;11.99;100.00
12349;BME280;5974;42.710;27.258;2023-03-23T12:47:05;100377.03;;;11.42;100.00
12349;BME280;5974;42.710;27.258;2023-03-23T12:49:36;100383.09;;;11.21;100.00
12349;BME280;5974;42.710;27.258;2023-03-23T12:52:11;100381.22;;;11.24;100.00
12349;BME280;5974;42.710;27.258;2023-03-23T12:54:44;100388.25;;;11.01;100.00
12349;BME280;5974;42.710;27.258;2023-03-23T12:57:20;100391.72;;;11.01;100.00
12349;BME280;5974;42.710;27.258;2023-03-23T12:59:56;100396.72;;;11.29;100.00
12349;BME280;5974;42.710;27.258;2023-03-23T13:02:30;100389.53;;;11.12;100.00
12349;BME280;5974;42.710;27.258;2023-03-23T13:05:02;100397.16;;;10.95;100.00
12349;BME280;5974;42.710;27.258;2023-03-23T13:07:34;100397.53;;;11.09;100.00